Strong, Arkansas
Current Conditions -  °F | °C
As of 5:53 AM on Thursday 29 Jan 2015 (Local Time) from KELD Reporting Station
Clear Clear  
Wind Chill: 52°   Ceiling: Unl
Heat Index: 52°   Visibility: 10mi
Dew Point: 47°   Wind: 7mph
Humidity: 83%   Direction: 190°S
Pressure: 30.09"   Gusts: NA
Location:  33.11°N, 92.33°W
Report Text: KELD 291153Z AUTO 19006KT 10SM CLR 11/08 A3009 RMK AO2 SLP187 T01110083 10139 20111 55001
Loading
Personal Weather Stations






























Interactive Weather Map New forecast layout! Learn more

10-Day Weather Forecast

Advertisements
Track Severe Weather on mobile